CheckWX is a tool to help pilots better visualize weather data.  It is not intended as a substitute for an official pre-flight weather briefing.

10:12:50 UTC

EKEB METAR
Esbjerg Airport
Esbjerg, Denmark
Current

23 mins ago

EKEB 210950Z AUTO 23013KT 5000 BKN005/// 09/08 Q1029
Observed
Mar-21 @ 09:50 UTC
Wind
  • 230° at 13 KTS
Visibility
5,005 meters
Flight Rules
IFR
Cloud Levels
  • Broken at 500' AGL
Temperature
C / 48°F
Dewpoint
C / 46°F
Humidity
94%
Altimeter
30.38" Hg
Pressure
1028.91 hPa
Previous

53 mins ago

EKEB 210920Z AUTO 23014KT 210V280 5000 BKN005/// 09/08 Q1029
Observed
Mar-21 @ 09:20 UTC
Wind
  • 230° at 14 KTS
Visibility
5,005 meters
Flight Rules
IFR
Cloud Levels
  • Broken at 500' AGL
Temperature
C / 48°F
Dewpoint
C / 46°F
Humidity
94%
Altimeter
30.38" Hg
Pressure
1028.91 hPa
Previous

1 hour ago

EKEB 210850Z AUTO 23015KT 5000 BKN005/// 09/08 Q1029
Observed
Mar-21 @ 08:50 UTC
Wind
  • 230° at 15 KTS
Visibility
5,005 meters
Flight Rules
IFR
Cloud Levels
  • Broken at 500' AGL
Temperature
C / 48°F
Dewpoint
C / 46°F
Humidity
94%
Altimeter
30.38" Hg
Pressure
1028.91 hPa